createdAt,value
2023-04-01T00:01:16.377Z,29.46
2023-04-01T00:04:19.995Z,28.83
2023-04-01T00:07:24.100Z,28.87
2023-04-01T00:10:27.769Z,27.96
2023-04-01T00:13:31.120Z,27.67
2023-04-01T00:16:34.749Z,28.32
2023-04-01T00:19:38.691Z,29.11
2023-04-01T00:22:42.727Z,28.43
2023-04-01T00:25:48.884Z,27.33
2023-04-01T00:28:52.842Z,27.35
2023-04-01T00:31:56.182Z,28.03
2023-04-01T00:35:01.211Z,28.76
2023-04-01T00:38:05.231Z,28.80
2023-04-01T00:41:08.955Z,27.67
2023-04-01T00:44:29.999Z,27.62
2023-04-01T00:47:33.561Z,27.20
2023-04-01T00:50:38.648Z,28.52
2023-04-01T00:53:54.368Z,29.18
2023-04-01T00:57:17.640Z,30.24
2023-04-01T01:00:21.336Z,31.02
2023-04-01T01:03:24.729Z,31.46
2023-04-01T01:06:54.402Z,31.06
2023-04-01T01:10:16.532Z,31.32
2023-04-01T01:13:39.970Z,31.31
2023-04-01T01:16:54.129Z,31.01
2023-04-01T01:20:15.610Z,31.92
2023-04-01T01:24:02.807Z,32.06
2023-04-01T01:27:09.804Z,31.45
2023-04-01T01:31:05.124Z,31.05
2023-04-01T01:34:08.295Z,31.45
2023-04-01T01:37:16.182Z,29.89
2023-04-01T01:40:20.647Z,29.92
2023-04-01T01:43:27.741Z,30.39
2023-04-01T01:46:32.855Z,30.32
2023-04-01T01:49:38.250Z,30.44
2023-04-01T01:52:41.724Z,30.93
2023-04-01T01:55:48.414Z,29.84
2023-04-01T01:59:00.126Z,30.21
2023-04-01T02:02:09.516Z,30.65
2023-04-01T02:05:17.860Z,30.51
2023-04-01T02:08:37.081Z,29.80
2023-04-01T02:11:52.089Z,30.32
2023-04-01T02:15:09.892Z,30.32
2023-04-01T02:18:16.223Z,30.52
2023-04-01T02:21:22.666Z,29.71
2023-04-01T02:24:28.972Z,29.24
2023-04-01T02:27:35.178Z,28.72
2023-04-01T02:30:41.886Z,28.81
2023-04-01T02:33:46.094Z,29.37
2023-04-01T02:36:51.365Z,29.66
2023-04-01T02:39:54.768Z,29.06
2023-04-01T02:42:58.116Z,29.19
2023-04-01T02:46:01.504Z,29.26
2023-04-01T02:49:07.250Z,29.10
2023-04-01T02:52:11.929Z,28.98
2023-04-01T02:55:15.311Z,29.69
2023-04-01T02:58:19.132Z,29.28
2023-04-01T03:01:23.537Z,29.49
2023-04-01T03:04:28.480Z,28.86
2023-04-01T03:07:38.683Z,28.54
2023-04-01T03:10:43.189Z,29.33
2023-04-01T03:13:48.034Z,28.56
2023-04-01T03:16:51.486Z,29.19
2023-04-01T03:19:54.943Z,28.85
2023-04-01T03:22:58.705Z,28.30
2023-04-01T03:26:03.767Z,28.39
2023-04-01T03:29:07.482Z,28.34
2023-04-01T03:32:13.191Z,28.44
2023-04-01T03:35:16.956Z,28.68
2023-04-01T03:38:22.532Z,28.66
2023-04-01T03:41:27.296Z,28.82
2023-04-01T03:44:34.941Z,28.68
2023-04-01T03:47:38.464Z,29.17
2023-04-01T03:50:42.098Z,28.17
2023-04-01T03:53:45.603Z,28.50
2023-04-01T03:56:49.285Z,28.33
2023-04-01T03:59:52.874Z,28.01
2023-04-01T04:02:58.209Z,28.74
2023-04-01T04:09:29.493Z,27.85
2023-04-01T04:12:32.910Z,27.50
2023-04-01T04:15:36.317Z,27.26
2023-04-01T04:18:39.745Z,27.97
2023-04-01T04:21:43.911Z,27.59
2023-04-01T04:24:47.396Z,28.03
2023-04-01T04:27:51.191Z,27.47
2023-04-01T04:30:55.312Z,27.48
2023-04-01T04:34:00.603Z,27.74
2023-04-01T04:37:04.069Z,27.00
2023-04-01T04:40:12.037Z,27.14
2023-04-01T04:43:17.877Z,27.17
2023-04-01T04:46:22.445Z,27.14
2023-04-01T04:49:30.182Z,26.45
2023-04-01T04:52:33.627Z,26.45
2023-04-01T04:55:36.949Z,26.27
2023-04-01T04:58:59.378Z,25.56
2023-04-01T05:02:13.582Z,26.19
2023-04-01T05:05:16.941Z,26.96
2023-04-01T05:08:20.699Z,25.36
2023-04-01T05:11:24.216Z,25.73
2023-04-01T05:14:28.231Z,25.67
2023-04-01T05:21:36.028Z,25.74
2023-04-01T05:24:42.139Z,25.96
2023-04-01T05:27:45.519Z,25.87
2023-04-01T05:31:01.949Z,26.12
2023-04-01T05:34:12.056Z,26.65
2023-04-01T05:37:24.696Z,26.95
2023-04-01T05:40:28.210Z,26.19
2023-04-01T05:43:31.843Z,26.15
2023-04-01T05:46:55.043Z,26.45
2023-04-01T05:50:01.063Z,26.79
2023-04-01T05:53:04.667Z,27.09
2023-04-01T05:56:10.977Z,26.94
2023-04-01T05:59:24.266Z,26.86
2023-04-01T06:02:29.035Z,27.81
2023-04-01T06:05:41.557Z,27.14
2023-04-01T06:08:45.231Z,27.18
2023-04-01T06:12:33.301Z,26.93
2023-04-01T06:16:00.618Z,26.69
2023-04-01T06:19:07.003Z,25.74
2023-04-01T06:22:30.780Z,25.46
2023-04-01T06:25:39.955Z,25.14
2023-04-01T06:28:52.124Z,24.60
2023-04-01T06:32:19.543Z,25.05
2023-04-01T06:35:32.445Z,25.12
2023-04-01T06:38:57.178Z,25.25
2023-04-01T06:42:19.024Z,25.11
2023-04-01T06:45:47.955Z,24.24
2023-04-01T06:49:32.867Z,24.21
2023-04-01T06:53:25.003Z,24.13
2023-04-01T06:56:51.251Z,24.13
2023-04-01T07:00:35.549Z,24.56
2023-04-01T07:04:00.555Z,24.24
2023-04-01T07:07:18.475Z,24.22
2023-04-01T07:11:24.933Z,23.46
2023-04-01T07:15:39.363Z,24.15
2023-04-01T07:19:21.636Z,24.38
2023-04-01T07:22:54.445Z,24.33
2023-04-01T07:26:30.806Z,23.78
2023-04-01T07:29:46.559Z,23.60
2023-04-01T07:32:51.464Z,24.02
2023-04-01T07:36:06.817Z,24.08
2023-04-01T07:39:13.097Z,24.33
2023-04-01T07:43:10.049Z,23.88
2023-04-01T07:46:33.294Z,23.17
2023-04-01T07:49:54.579Z,23.48
2023-04-01T07:53:34.975Z,23.26
2023-04-01T07:57:00.409Z,23.78
2023-04-01T08:00:27.753Z,23.75
2023-04-01T08:03:59.838Z,23.55
2023-04-01T08:07:19.848Z,22.91
2023-04-01T08:10:56.917Z,23.02
2023-04-01T08:14:50.561Z,22.87
2023-04-01T08:18:39.493Z,22.52
2023-04-01T08:21:49.219Z,21.99
2023-04-01T08:24:54.446Z,22.40
2023-04-01T08:31:59.623Z,22.37
2023-04-01T08:35:41.004Z,22.92
2023-04-01T08:38:58.002Z,22.93
2023-04-01T08:42:14.987Z,22.04
2023-04-01T08:45:26.989Z,21.89
2023-04-01T08:48:51.191Z,22.01
2023-04-01T08:52:15.388Z,21.79
2023-04-01T08:55:36.276Z,22.20
2023-04-01T08:58:59.353Z,22.73
2023-04-01T09:02:23.754Z,22.56
2023-04-01T09:05:36.760Z,23.02
2023-04-01T09:08:58.121Z,23.21
2023-04-01T09:12:20.340Z,23.05
2023-04-01T09:15:42.956Z,23.76
2023-04-01T09:19:12.210Z,23.17
2023-04-01T09:22:43.114Z,23.40
2023-04-01T09:26:21.229Z,23.26
2023-04-01T09:29:46.008Z,23.63
2023-04-01T09:32:55.572Z,24.08
2023-04-01T09:40:23.257Z,23.98
2023-04-01T09:43:52.686Z,23.47
2023-04-01T09:47:21.700Z,23.53
2023-04-01T09:50:31.353Z,23.97
2023-04-01T09:54:07.446Z,23.96
2023-04-01T09:57:21.217Z,24.41
2023-04-01T10:01:04.644Z,24.21
2023-04-01T10:04:59.684Z,24.29
2023-04-01T10:08:27.233Z,24.31
2023-04-01T10:11:55.228Z,24.31
2023-04-01T10:15:36.519Z,24.73
2023-04-01T10:19:06.787Z,24.65
2023-04-01T10:22:41.634Z,24.87
2023-04-01T10:26:29.927Z,25.22
2023-04-01T10:30:09.775Z,25.54
2023-04-01T10:33:50.589Z,26.08
2023-04-01T10:37:32.527Z,25.79
2023-04-01T10:40:57.013Z,25.53
2023-04-01T10:44:14.247Z,26.21
2023-04-01T10:47:26.832Z,26.27
2023-04-01T10:50:48.388Z,25.70
2023-04-01T10:58:28.710Z,26.06
2023-04-01T11:02:18.261Z,26.09
2023-04-01T11:06:05.608Z,26.23
2023-04-01T11:10:02.411Z,25.94
2023-04-01T11:13:38.961Z,26.08
2023-04-01T11:17:01.996Z,25.99
2023-04-01T11:20:23.517Z,25.83
2023-04-01T11:24:04.507Z,26.30
2023-04-01T11:27:27.520Z,26.21
2023-04-01T11:31:05.383Z,26.34
2023-04-01T11:34:43.380Z,26.66
2023-04-01T11:38:24.555Z,26.77
2023-04-01T11:41:30.858Z,27.01
2023-04-01T11:45:17.422Z,27.07
2023-04-01T11:48:42.954Z,27.00
2023-04-01T11:52:03.545Z,27.74
2023-04-01T11:55:20.437Z,27.16
2023-04-01T11:58:48.507Z,27.14
2023-04-01T12:02:28.064Z,27.88
2023-04-01T12:06:12.770Z,27.16
2023-04-01T12:09:56.187Z,27.74
2023-04-01T12:13:06.881Z,27.35
2023-04-01T12:16:19.136Z,27.32
2023-04-01T12:19:31.237Z,27.16
2023-04-01T12:22:55.719Z,27.08
2023-04-01T12:26:42.358Z,26.57
2023-04-01T12:30:22.762Z,27.16
2023-04-01T12:34:01.353Z,26.61
2023-04-01T12:37:29.923Z,26.60
2023-04-01T12:41:16.300Z,26.59
2023-04-01T12:44:37.901Z,26.52
2023-04-01T12:48:04.128Z,26.40
2023-04-01T12:51:44.316Z,26.82
2023-04-01T12:55:17.513Z,26.79
2023-04-01T12:59:02.020Z,26.69
2023-04-01T13:02:47.968Z,26.67
2023-04-01T13:06:18.552Z,27.11
2023-04-01T13:09:57.445Z,26.97
2023-04-01T13:13:27.805Z,26.27
2023-04-01T13:16:55.210Z,26.48
2023-04-01T13:20:18.170Z,26.24
2023-04-01T13:23:55.109Z,26.82
2023-04-01T13:27:10.455Z,26.54
2023-04-01T13:30:29.847Z,27.01
2023-04-01T13:33:40.374Z,26.60
2023-04-01T13:37:07.741Z,26.70
2023-04-01T13:40:26.370Z,26.95
2023-04-01T13:43:48.232Z,26.65
2023-04-01T13:47:24.034Z,26.84
2023-04-01T13:50:45.996Z,26.73
2023-04-01T13:54:27.293Z,26.37
2023-04-01T13:57:31.137Z,26.17
2023-04-01T14:01:09.347Z,25.88
2023-04-01T14:05:09.188Z,25.85
2023-04-01T14:08:30.766Z,25.98
2023-04-01T14:12:00.281Z,25.68
2023-04-01T14:15:09.100Z,25.82
2023-04-01T14:18:49.396Z,25.79
2023-04-01T14:22:08.116Z,25.65
2023-04-01T14:26:02.085Z,25.90
2023-04-01T14:29:32.569Z,25.94
2023-04-01T14:32:50.631Z,26.02
2023-04-01T14:36:29.860Z,25.76
2023-04-01T14:39:38.863Z,25.90
2023-04-01T14:43:15.534Z,25.71
2023-04-01T14:46:29.651Z,25.80
2023-04-01T14:49:38.889Z,25.70
2023-04-01T14:52:48.449Z,26.30
2023-04-01T14:55:56.843Z,26.17
2023-04-01T14:59:00.533Z,25.98
2023-04-01T15:02:20.572Z,26.38
2023-04-01T15:05:41.986Z,26.69
2023-04-01T15:09:09.659Z,26.30
2023-04-01T15:12:46.408Z,26.45
2023-04-01T15:16:05.144Z,26.69
2023-04-01T15:19:26.236Z,26.91
2023-04-01T15:22:50.430Z,27.20
2023-04-01T15:26:15.263Z,27.28
2023-04-01T15:29:50.213Z,27.23
2023-04-01T15:33:15.749Z,27.50
2023-04-01T15:36:34.791Z,27.70
2023-04-01T15:39:59.464Z,28.12
2023-04-01T15:43:23.636Z,27.90
2023-04-01T15:46:27.314Z,27.97
2023-04-01T15:49:54.380Z,28.05
2023-04-01T15:53:28.439Z,27.98
2023-04-01T15:57:05.242Z,28.36
2023-04-01T16:00:25.465Z,28.22
2023-04-01T16:03:42.086Z,28.25
2023-04-01T16:07:09.786Z,27.95
2023-04-01T16:10:38.607Z,28.48
2023-04-01T16:14:08.016Z,28.30
2023-04-01T16:17:17.018Z,28.22
2023-04-01T16:20:22.083Z,28.54
2023-04-01T16:23:36.707Z,28.50
2023-04-01T16:27:05.346Z,28.40
2023-04-01T16:30:42.012Z,28.49
2023-04-01T16:34:29.242Z,28.74
2023-04-01T16:37:46.984Z,28.72
2023-04-01T16:41:18.187Z,28.48
2023-04-01T16:44:28.906Z,28.66
2023-04-01T16:47:56.150Z,28.79
2023-04-01T16:51:11.604Z,28.80
2023-04-01T16:54:38.869Z,28.65
2023-04-01T16:57:57.840Z,29.09
2023-04-01T17:01:07.773Z,28.98
2023-04-01T17:04:37.169Z,28.68
2023-04-01T17:08:12.313Z,28.77
2023-04-01T17:11:22.642Z,29.17
2023-04-01T17:14:32.324Z,29.23
2023-04-01T17:17:48.162Z,29.28
2023-04-01T17:21:03.599Z,29.02
2023-04-01T17:24:38.954Z,29.00
2023-04-01T17:27:54.648Z,29.21
2023-04-01T17:31:23.052Z,29.22
2023-04-01T17:34:49.902Z,29.01
2023-04-01T17:37:59.205Z,29.18
2023-04-01T17:41:05.604Z,29.45
2023-04-01T17:44:21.261Z,29.52
2023-04-01T17:47:47.656Z,29.44
2023-04-01T17:51:16.681Z,29.66
2023-04-01T17:54:38.175Z,29.66
2023-04-01T17:58:02.407Z,29.66
2023-04-01T18:01:19.772Z,29.94
2023-04-01T18:04:41.439Z,30.06
2023-04-01T18:07:56.067Z,30.11
2023-04-01T18:11:15.533Z,30.21
2023-04-01T18:14:45.063Z,29.74
2023-04-01T18:18:02.993Z,30.09
2023-04-01T18:21:16.253Z,30.17
2023-04-01T18:25:07.420Z,29.82
2023-04-01T18:28:29.229Z,30.16
2023-04-01T18:31:43.340Z,30.02
2023-04-01T18:35:28.050Z,29.90
2023-04-01T18:38:36.160Z,29.84
2023-04-01T18:42:17.897Z,30.15
2023-04-01T18:45:32.558Z,30.07
2023-04-01T18:49:04.583Z,30.07
2023-04-01T18:52:21.006Z,30.19
2023-04-01T18:55:51.486Z,30.58
2023-04-01T18:59:32.705Z,30.19
2023-04-01T19:02:42.463Z,30.22
2023-04-01T19:05:49.999Z,30.03
2023-04-01T19:08:55.327Z,30.38
2023-04-01T19:12:43.228Z,30.10
2023-04-01T19:16:09.876Z,30.35
2023-04-01T19:19:25.094Z,30.16
2023-04-01T19:22:47.050Z,30.56
2023-04-01T19:25:55.765Z,30.80
2023-04-01T19:29:41.153Z,30.54
2023-04-01T19:32:53.608Z,30.53
2023-04-01T19:36:09.319Z,30.66
2023-04-01T19:39:31.377Z,31.00
2023-04-01T19:43:14.540Z,30.81
2023-04-01T19:46:36.932Z,31.10
2023-04-01T19:49:55.112Z,31.04
2023-04-01T19:53:02.571Z,31.37
2023-04-01T19:56:20.406Z,31.57
2023-04-01T19:59:26.476Z,31.18
2023-04-01T20:02:35.910Z,31.12
2023-04-01T20:05:46.751Z,31.16
2023-04-01T20:09:28.409Z,31.58
2023-04-01T20:12:44.295Z,31.75
2023-04-01T20:16:05.615Z,31.58
2023-04-01T20:19:11.920Z,31.63
2023-04-01T20:22:38.712Z,31.72
2023-04-01T20:25:50.824Z,31.98
2023-04-01T20:29:09.107Z,32.08
2023-04-01T20:32:18.606Z,32.51
2023-04-01T20:35:21.993Z,32.59
2023-04-01T20:38:58.379Z,32.63
2023-04-01T20:42:28.590Z,32.66
2023-04-01T20:46:09.925Z,32.65
2023-04-01T20:49:40.294Z,32.73
2023-04-01T20:52:51.770Z,32.69
2023-04-01T20:56:01.132Z,32.94
2023-04-01T20:59:48.463Z,33.10
2023-04-01T21:03:10.189Z,33.14
2023-04-01T21:06:32.939Z,33.15
2023-04-01T21:09:50.217Z,33.21
2023-04-01T21:13:12.472Z,33.25
2023-04-01T21:16:19.666Z,33.34
2023-04-01T21:19:42.626Z,33.70
2023-04-01T21:23:10.745Z,33.38
2023-04-01T21:26:28.979Z,33.27
2023-04-01T21:29:53.695Z,33.11
2023-04-01T21:33:21.686Z,33.47
2023-04-01T21:36:53.701Z,33.94
2023-04-01T21:40:20.184Z,33.73
2023-04-01T21:44:00.476Z,33.87
2023-04-01T21:47:22.371Z,33.92
2023-04-01T21:50:56.469Z,33.96
2023-04-01T21:54:24.617Z,33.68
2023-04-01T21:57:57.158Z,33.62
2023-04-01T22:01:38.337Z,33.32
2023-04-01T22:04:49.950Z,33.60
2023-04-01T22:08:13.405Z,33.82
2023-04-01T22:11:46.708Z,33.68
2023-04-01T22:15:15.388Z,33.30
2023-04-01T22:18:36.826Z,33.28
2023-04-01T22:22:06.681Z,33.54
2023-04-01T22:25:51.875Z,33.72
2023-04-01T22:28:58.334Z,33.29
2023-04-01T22:32:18.085Z,33.43
2023-04-01T22:35:55.479Z,33.01
2023-04-01T22:39:21.315Z,33.36
2023-04-01T22:42:33.788Z,33.37
2023-04-01T22:45:45.174Z,33.29
2023-04-01T22:48:51.031Z,32.75
2023-04-01T22:52:15.465Z,33.04
2023-04-01T22:55:27.681Z,32.96
2023-04-01T22:58:44.865Z,33.10
2023-04-01T23:02:01.817Z,33.18
2023-04-01T23:05:08.042Z,33.17
2023-04-01T23:08:52.909Z,32.91
2023-04-01T23:11:59.009Z,32.50
2023-04-01T23:15:03.496Z,32.78
2023-04-01T23:18:17.703Z,32.57
2023-04-01T23:21:26.277Z,32.28
2023-04-01T23:24:39.880Z,32.03
2023-04-01T23:27:50.488Z,32.42
2023-04-01T23:30:54.256Z,32.02
2023-04-01T23:34:02.614Z,31.75
2023-04-01T23:37:17.835Z,31.52
2023-04-01T23:40:21.490Z,31.96
2023-04-01T23:43:27.768Z,31.97
2023-04-01T23:46:34.444Z,32.02
2023-04-01T23:49:45.884Z,32.41
2023-04-01T23:52:54.262Z,32.26
2023-04-01T23:55:58.112Z,32.03
2023-04-01T23:59:03.604Z,32.30
